Time;durP1;ratioP1;P1;durP2;ratioP2;P2;SDS_P1;SDS_P2;PMS_P1;PMS_P2;Temp;Humidity;BMP_temperature;BMP_pressure;BME280_temperature;BME280_humidity;BME280_pressure;Samples;Min_cycle;Max_cycle;Signal;HPM_P1;HPM_P2
2021/03/19 00:04:55;;;;;;;58.87;23.35;;;;;;;-1.10;100.00;99062.25;4334408;80;44135;-78
2021/03/19 00:10:58;;;;;;;51.88;22.58;;;;;;;-1.27;100.00;99049.77;4332036;80;44134;-77
2021/03/19 00:17:01;;;;;;;59.38;23.35;;;;;;;-1.34;100.00;99039.99;4344544;81;44099;-77
2021/03/19 00:23:05;;;;;;;60.38;24.02;;;;;;;-1.39;100.00;99043.09;4330471;80;44081;-76
2021/03/19 00:29:09;;;;;;;66.97;26.82;;;;;;;-1.42;100.00;99036.30;4329013;80;43303;-76
2021/03/19 00:35:12;;;;;;;62.10;25.25;;;;;;;-1.38;100.00;99032.06;4337963;81;43659;-75
2021/03/19 00:41:15;;;;;;;61.50;25.37;;;;;;;-1.38;100.00;99034.19;4335169;81;42908;-75
2021/03/19 00:47:17;;;;;;;71.37;28.62;;;;;;;-1.26;100.00;99033.46;4338138;81;44140;-75
2021/03/19 00:53:20;;;;;;;74.77;30.77;;;;;;;-1.22;100.00;99033.98;4340417;81;44083;-75
2021/03/19 00:59:23;;;;;;;73.95;29.55;;;;;;;-1.09;100.00;99032.23;4342558;80;44101;-74
2021/03/19 01:05:33;;;;;;;72.20;30.02;;;;;;;-0.85;100.00;99029.75;4337070;82;44112;-75
2021/03/19 01:11:34;;;;;;;82.88;32.60;;;;;;;-0.71;100.00;99030.13;4338959;80;43058;-76
2021/03/19 01:17:36;;;;;;;73.57;31.12;;;;;;;-0.55;100.00;99024.09;4336325;80;43647;-76
2021/03/19 01:23:42;;;;;;;73.67;30.23;;;;;;;-0.66;100.00;99020.42;4325019;80;44105;-76
2021/03/19 01:29:44;;;;;;;82.80;32.15;;;;;;;-0.71;100.00;99029.66;4337288;81;28606;-76
2021/03/19 01:35:46;;;;;;;77.95;30.72;;;;;;;-0.88;100.00;99029.23;4342410;80;43741;-76
2021/03/19 01:41:51;;;;;;;77.22;31.50;;;;;;;-0.95;100.00;99025.08;4330725;81;43651;-77
2021/03/19 01:48:49;;;;;;;61.70;23.87;;;;;;;-1.08;100.00;99020.21;4348964;81;28556;-77
2021/03/19 01:55:49;;;;;;;76.95;30.23;;;;;;;-1.28;100.00;99019.61;4318132;82;43485;-77
2021/03/19 02:02:47;;;;;;;79.75;32.03;;;;;;;-1.16;100.00;99014.41;4320679;81;43059;-76
2021/03/19 02:09:46;;;;;;;83.85;31.60;;;;;;;-1.29;100.00;99016.13;4353900;81;43055;-77
2021/03/19 02:16:44;;;;;;;82.37;32.35;;;;;;;-1.70;100.00;99013.19;4345538;82;43051;-76
2021/03/19 02:23:43;;;;;;;80.22;30.68;;;;;;;-1.91;100.00;99016.97;4313566;80;43305;-76
2021/03/19 02:30:41;;;;;;;76.87;31.12;;;;;;;-1.97;100.00;99020.22;4327677;80;43675;-77
2021/03/19 02:36:43;;;;;;;78.33;29.80;;;;;;;-1.80;100.00;99015.92;4339271;80;43787;-77
2021/03/19 02:42:46;;;;;;;78.10;29.60;;;;;;;-2.04;100.00;99015.20;4326555;81;43645;-76
2021/03/19 02:48:48;;;;;;;74.35;30.45;;;;;;;-2.34;100.00;99020.68;4322790;80;44136;-76
2021/03/19 02:54:53;;;;;;;83.55;30.95;;;;;;;-2.46;100.00;99029.26;4342460;80;43063;-76
2021/03/19 03:00:56;;;;;;;79.42;29.20;;;;;;;-2.56;100.00;99022.71;4363446;80;43760;-75
2021/03/19 03:07:00;;;;;;;79.37;31.02;;;;;;;-2.78;100.00;99031.84;4360925;80;43043;-78
2021/03/19 03:13:03;;;;;;;80.92;30.82;;;;;;;-2.73;100.00;99034.85;4348767;81;43036;-77
2021/03/19 03:19:11;;;;;;;92.57;34.00;;;;;;;-2.71;100.00;99028.14;4349126;80;44159;-78
2021/03/19 03:25:15;;;;;;;79.87;31.85;;;;;;;-2.80;100.00;99035.92;4366841;81;42984;-77
2021/03/19 03:31:18;;;;;;;80.55;30.15;;;;;;;-2.91;100.00;99036.11;4350080;80;28615;-78
2021/03/19 03:37:22;;;;;;;75.97;29.12;;;;;;;-2.94;100.00;99028.00;4337748;80;44081;-78
2021/03/19 03:43:25;;;;;;;86.05;31.90;;;;;;;-3.00;100.00;99031.70;4353552;80;43127;-78
2021/03/19 03:49:29;;;;;;;83.62;31.93;;;;;;;-3.04;100.00;99034.29;4380267;80;28606;-76
2021/03/19 03:55:31;;;;;;;79.47;31.80;;;;;;;-3.12;100.00;99033.19;4368025;80;42606;-76
2021/03/19 04:01:38;;;;;;;79.07;30.88;;;;;;;-3.17;100.00;99033.28;4393644;80;42952;-76
2021/03/19 04:07:41;;;;;;;82.12;32.50;;;;;;;-3.28;100.00;99026.37;4379685;80;43098;-76
2021/03/19 04:13:45;;;;;;;82.47;33.25;;;;;;;-3.31;100.00;99030.61;4284953;82;43036;-75
2021/03/19 04:19:47;;;;;;;84.40;32.13;;;;;;;-3.36;100.00;99031.88;4395421;80;43074;-76
2021/03/19 04:25:51;;;;;;;98.17;36.68;;;;;;;-3.31;100.00;99031.45;4370483;81;43646;-76
2021/03/19 04:31:53;;;;;;;97.12;34.20;;;;;;;-3.33;100.00;99028.61;4376681;81;44113;-76
2021/03/19 04:38:00;;;;;;;86.32;33.25;;;;;;;-3.43;100.00;99028.14;4377808;80;43760;-75
2021/03/19 04:44:04;;;;;;;90.53;34.40;;;;;;;-3.39;100.00;99033.45;4382478;80;44327;-76
2021/03/19 04:50:09;;;;;;;96.67;35.17;;;;;;;-3.23;100.00;99030.27;4392730;79;28611;-75
2021/03/19 04:56:11;;;;;;;84.60;35.20;;;;;;;-3.25;100.00;99028.23;4386780;80;36008;-76
2021/03/19 05:02:14;;;;;;;93.27;38.58;;;;;;;-3.18;100.00;99035.06;4377489;80;44745;-77
2021/03/19 05:08:16;;;;;;;89.17;35.65;;;;;;;-3.05;100.00;99030.00;4316181;81;44455;-77
2021/03/19 05:14:20;;;;;;;82.20;33.75;;;;;;;-2.80;100.00;99039.87;4380694;80;43066;-77
2021/03/19 05:20:23;;;;;;;89.05;35.65;;;;;;;-2.82;100.00;99033.92;4389458;80;44423;-78
2021/03/19 05:26:25;;;;;;;85.15;35.90;;;;;;;-2.83;100.00;99040.64;4389505;81;44723;-78
2021/03/19 05:32:27;;;;;;;89.07;36.98;;;;;;;-2.66;100.00;99044.30;4394503;80;44482;-76
2021/03/19 05:38:30;;;;;;;86.42;35.15;;;;;;;-2.69;100.00;99041.97;4378110;79;44078;-77
2021/03/19 05:44:32;;;;;;;91.70;37.35;;;;;;;-2.63;100.00;99049.30;4374355;80;44427;-76
2021/03/19 05:50:36;;;;;;;85.12;36.05;;;;;;;-2.52;100.00;99048.27;4376394;80;44008;-78
2021/03/19 05:56:40;;;;;;;86.47;37.40;;;;;;;-2.26;100.00;99051.53;4386012;80;34433;-78
2021/03/19 06:02:43;;;;;;;92.25;40.48;;;;;;;-2.05;100.00;99055.20;4388785;80;44425;-79
2021/03/19 06:08:48;;;;;;;91.15;39.67;;;;;;;-1.84;100.00;99065.47;4371198;80;44428;-76
2021/03/19 06:14:54;;;;;;;96.45;40.60;;;;;;;-1.50;100.00;99067.08;4299322;81;28623;-78
2021/03/19 06:21:11;;;;;;;94.52;40.15;;;;;;;-1.19;100.00;99070.61;4291211;81;44467;-80
2021/03/19 06:27:27;;;;;;;99.13;43.30;;;;;;;-0.78;100.00;99080.58;4306835;81;43808;-79
2021/03/19 06:33:29;;;;;;;107.00;45.05;;;;;;;-0.47;100.00;99080.92;4295443;81;44330;-78
2021/03/19 06:39:46;;;;;;;92.53;39.60;;;;;;;-0.15;100.00;99083.86;4367222;81;44463;-80
2021/03/19 06:46:11;;;;;;;94.67;40.35;;;;;;;0.03;100.00;99085.05;4358322;80;43993;-79
2021/03/19 06:52:25;;;;;;;83.70;36.30;;;;;;;0.26;100.00;99082.63;4317716;81;43767;-79
2021/03/19 06:58:40;;;;;;;89.30;39.48;;;;;;;0.48;100.00;99086.11;4369958;80;44423;-79
2021/03/19 07:05:06;;;;;;;99.95;43.20;;;;;;;0.64;100.00;99102.48;4388993;80;28600;-78
2021/03/19 07:11:30;;;;;;;94.45;40.43;;;;;;;0.50;100.00;99098.67;4386157;80;44478;-79
2021/03/19 07:18:10;;;;;;;87.72;38.95;;;;;;;0.83;100.00;99104.80;4372089;81;44489;-77
2021/03/19 07:24:35;;;;;;;79.75;37.23;;;;;;;1.13;100.00;99106.11;4396458;81;43427;-80
2021/03/19 07:31:01;;;;;;;85.53;36.35;;;;;;;1.22;100.00;99105.91;4366611;80;44111;-80
2021/03/19 07:37:44;;;;;;;84.90;35.92;;;;;;;1.39;100.00;99111.19;4391426;81;28660;-79
2021/03/19 07:43:54;;;;;;;81.60;35.73;;;;;;;1.67;100.00;99107.61;4357971;80;43382;-76
2021/03/19 07:50:37;;;;;;;79.97;35.80;;;;;;;1.76;100.00;99108.91;4375353;80;43382;-78
2021/03/19 07:57:02;;;;;;;84.83;35.73;;;;;;;1.85;100.00;99113.19;4366359;80;44751;-79
2021/03/19 08:03:13;;;;;;;62.17;26.27;;;;;;;2.15;100.00;99117.34;4314611;81;32969;-78
2021/03/19 08:09:34;;;;;;;82.85;36.42;;;;;;;2.20;100.00;99121.62;4381042;80;43760;-74
2021/03/19 08:22:27;;;;;;;58.02;27.17;;;;;;;2.59;100.00;99117.73;4532227;76;61211;-79
2021/03/19 08:28:44;;;;;;;61.20;25.77;;;;;;;2.73;100.00;99115.63;4429813;79;28612;-79
2021/03/19 08:35:07;;;;;;;50.50;23.00;;;;;;;2.85;100.00;99108.56;4368714;80;28599;-78
2021/03/19 08:41:26;;;;;;;43.27;19.97;;;;;;;2.98;96.45;99105.30;4393841;80;28585;-75
2021/03/19 08:47:46;;;;;;;38.98;18.07;;;;;;;3.24;93.35;99102.23;4376348;80;28615;-79
2021/03/19 08:54:16;;;;;;;38.53;17.52;;;;;;;3.18;88.26;99106.95;4351433;80;28587;-78
2021/03/19 09:00:35;;;;;;;36.63;17.27;;;;;;;3.48;90.20;99101.14;4380169;80;28605;-78
2021/03/19 09:06:40;;;;;;;36.25;17.20;;;;;;;3.87;84.54;99102.37;4352281;79;28589;-80
2021/03/19 09:13:10;;;;;;;32.85;16.65;;;;;;;3.79;82.87;99091.30;4386685;79;28601;-80
2021/03/19 09:19:45;;;;;;;34.05;15.85;;;;;;;3.85;81.62;99097.22;4387564;79;28617;-78
2021/03/19 09:26:10;;;;;;;31.12;14.63;;;;;;;4.04;79.55;99094.99;4384822;79;28608;-78
2021/03/19 09:32:45;;;;;;;29.05;14.50;;;;;;;4.17;76.25;99097.80;4366492;80;28641;-79
2021/03/19 09:39:05;;;;;;;30.52;15.05;;;;;;;4.63;70.41;99086.98;4600850;76;80021;-77
2021/03/19 09:45:13;;;;;;;25.92;12.73;;;;;;;4.65;70.38;99087.61;4503993;78;28648;-80
2021/03/19 09:51:30;;;;;;;29.82;13.85;;;;;;;5.00;66.26;99081.86;4485868;78;28625;-77
2021/03/19 09:57:32;;;;;;;26.93;13.03;;;;;;;4.58;65.18;99086.22;4496327;78;29065;-78
2021/03/19 10:03:49;;;;;;;24.37;11.25;;;;;;;4.62;60.47;99082.67;4484329;78;28614;-77
2021/03/19 10:09:59;;;;;;;21.20;10.93;;;;;;;4.59;60.85;99079.88;4492444;78;28594;-75
2021/03/19 10:16:04;;;;;;;23.30;11.60;;;;;;;4.19;62.32;99082.45;4485280;78;28617;-73
2021/03/19 10:22:10;;;;;;;20.02;10.15;;;;;;;3.99;60.32;99088.91;4497727;78;28539;-76
2021/03/19 10:28:21;;;;;;;19.12;9.95;;;;;;;3.84;59.40;99090.75;4506203;78;28625;-76
2021/03/19 10:34:39;;;;;;;21.60;11.20;;;;;;;3.92;60.22;99089.32;4477046;78;28622;-75
2021/03/19 10:40:46;;;;;;;10.18;5.62;;;;;;;3.73;60.80;99098.71;4499695;78;28542;-75
2021/03/19 10:47:09;;;;;;;12.30;6.58;;;;;;;3.35;58.89;99105.77;4513062;78;28551;-78
2021/03/19 10:53:17;;;;;;;14.73;7.37;;;;;;;3.59;56.53;99107.85;4496897;78;28662;-77
2021/03/19 10:59:36;;;;;;;20.92;9.55;;;;;;;3.94;56.73;99096.60;4492622;78;28561;-74
2021/03/19 11:06:00;;;;;;;16.75;8.85;;;;;;;4.13;59.13;99102.34;4496859;78;28573;-74
2021/03/19 11:12:08;;;;;;;17.02;8.23;;;;;;;4.53;58.62;99092.13;4509520;78;28547;-71
2021/03/19 11:18:35;;;;;;;18.25;8.98;;;;;;;4.35;60.34;99091.23;4493586;78;28545;-74
2021/03/19 11:24:40;;;;;;;16.35;8.45;;;;;;;3.96;74.27;99095.94;4480156;78;28553;-74
2021/03/19 11:30:42;;;;;;;13.38;8.05;;;;;;;3.91;76.22;99094.33;4495691;78;28602;-75
2021/03/19 11:37:18;;;;;;;22.52;11.97;;;;;;;4.42;68.64;99088.11;4470228;78;28593;-74
2021/03/19 11:43:20;;;;;;;27.85;12.95;;;;;;;4.27;79.76;99083.36;4480836;78;28656;-74
2021/03/19 11:49:22;;;;;;;23.00;12.53;;;;;;;3.70;97.07;99093.77;4486661;78;28590;-74
2021/03/19 11:55:33;;;;;;;22.30;11.90;;;;;;;3.62;96.48;99097.33;4501567;78;28550;-74
2021/03/19 12:01:37;;;;;;;23.95;11.75;;;;;;;3.55;92.81;99093.25;4505205;78;28542;-73
2021/03/19 12:07:40;;;;;;;26.95;12.98;;;;;;;3.31;98.62;99096.52;4500372;78;28562;-75
2021/03/19 12:13:42;;;;;;;23.05;11.90;;;;;;;3.57;100.00;99101.87;4507394;79;28626;-73
2021/03/19 12:19:46;;;;;;;20.12;9.95;;;;;;;3.95;87.04;99104.09;4500868;78;28609;-74
2021/03/19 12:25:49;;;;;;;26.80;12.53;;;;;;;4.20;82.26;99104.59;4480197;78;28618;-76
2021/03/19 12:31:52;;;;;;;17.32;10.13;;;;;;;3.97;86.90;99094.08;4485297;79;28628;-74
2021/03/19 12:37:57;;;;;;;17.45;9.98;;;;;;;3.34;95.20;99100.13;4509806;78;28586;-75
2021/03/19 12:43:59;;;;;;;14.53;8.55;;;;;;;3.34;96.57;99100.13;4488858;78;28559;-76
2021/03/19 12:50:03;;;;;;;14.55;7.75;;;;;;;3.91;87.76;99095.66;4517019;78;28549;-75
2021/03/19 12:56:09;;;;;;;17.57;9.85;;;;;;;4.35;73.52;99081.92;4510829;78;28565;-74
2021/03/19 13:02:11;;;;;;;18.70;10.40;;;;;;;4.69;74.45;99079.58;4495355;78;36230;-75
2021/03/19 13:08:14;;;;;;;19.27;10.05;;;;;;;5.08;70.35;99075.55;4514573;78;28558;-75
2021/03/19 13:14:18;;;;;;;19.92;10.82;;;;;;;4.93;66.98;99067.66;4505444;78;28606;-74
2021/03/19 13:20:23;;;;;;;17.20;9.68;;;;;;;5.00;67.25;99061.88;4492885;79;28655;-75
2021/03/19 13:26:26;;;;;;;22.75;10.53;;;;;;;5.08;65.99;99056.90;4484828;78;28574;-75
2021/03/19 13:32:28;;;;;;;19.05;9.80;;;;;;;4.88;66.39;99054.11;4397544;79;28583;-81
2021/03/19 13:38:33;;;;;;;14.13;7.85;;;;;;;4.73;63.53;99055.00;4413596;79;28807;-78
2021/03/19 13:44:39;;;;;;;15.68;8.58;;;;;;;4.48;61.27;99064.42;4513157;79;28577;-80
2021/03/19 13:50:41;;;;;;;15.05;7.45;;;;;;;3.94;64.04;99060.69;4512718;79;28558;-78
2021/03/19 13:56:46;;;;;;;16.00;8.40;;;;;;;4.17;56.75;99063.20;4447416;79;28601;-80
2021/03/19 14:02:51;;;;;;;14.47;8.18;;;;;;;4.56;65.94;99057.11;4498195;79;28667;-81
2021/03/19 14:08:55;;;;;;;13.72;7.30;;;;;;;4.77;64.18;99051.97;4475081;80;28562;-81
2021/03/19 14:14:57;;;;;;;14.60;7.33;;;;;;;4.74;61.86;99045.19;4441949;78;28675;-74
2021/03/19 14:21:00;;;;;;;15.63;8.05;;;;;;;4.23;61.19;99063.47;4366436;80;28632;-75
2021/03/19 14:27:03;;;;;;;15.78;8.40;;;;;;;3.27;76.65;99090.42;4374323;80;28565;-74
2021/03/19 14:33:07;;;;;;;15.05;7.67;;;;;;;1.24;100.00;99111.86;4351762;80;28554;-76
2021/03/19 14:39:10;;;;;;;9.80;5.28;;;;;;;1.16;100.00;99105.77;4391315;80;28613;-74
2021/03/19 14:45:14;;;;;;;8.80;5.05;;;;;;;1.60;100.00;99093.37;4372017;80;42693;-73
2021/03/19 14:51:17;;;;;;;8.78;4.50;;;;;;;2.05;100.00;99097.66;4291118;81;42689;-74
2021/03/19 14:57:19;;;;;;;9.58;5.22;;;;;;;2.15;100.00;99093.48;4340705;81;43101;-74
2021/03/19 15:03:21;;;;;;;11.08;5.35;;;;;;;2.29;100.00;99093.72;4344290;81;28585;-73
2021/03/19 15:09:24;;;;;;;10.48;5.55;;;;;;;2.27;100.00;99101.03;4383516;80;43275;-75
2021/03/19 15:15:27;;;;;;;9.83;5.47;;;;;;;2.36;100.00;99099.47;4385955;79;28559;-73
2021/03/19 15:21:29;;;;;;;10.25;5.87;;;;;;;2.28;100.00;99108.80;4387053;79;43247;-74
2021/03/19 15:27:32;;;;;;;9.15;5.78;;;;;;;2.26;100.00;99106.02;4360304;80;28582;-73
2021/03/19 15:33:35;;;;;;;9.75;5.60;;;;;;;2.23;100.00;99105.34;4302111;81;28668;-73
2021/03/19 15:39:37;;;;;;;11.03;6.47;;;;;;;2.31;100.00;99106.30;4283574;81;28654;-74
2021/03/19 15:45:40;;;;;;;11.40;6.42;;;;;;;2.29;100.00;99100.35;4370218;80;28548;-75
2021/03/19 15:51:43;;;;;;;12.65;7.25;;;;;;;2.29;100.00;99110.47;4346455;80;43927;-73
2021/03/19 15:57:45;;;;;;;15.30;7.83;;;;;;;2.03;100.00;99102.31;4355947;80;28618;-75
2021/03/19 16:03:47;;;;;;;15.88;7.03;;;;;;;2.19;100.00;99110.69;4351315;80;43919;-73
2021/03/19 16:09:50;;;;;;;10.35;6.17;;;;;;;1.98;100.00;99111.80;4355354;80;28555;-73
2021/03/19 16:15:53;;;;;;;12.40;6.12;;;;;;;1.72;100.00;99104.93;4362989;80;28987;-74
2021/03/19 16:21:56;;;;;;;13.00;7.05;;;;;;;1.78;100.00;99125.47;4351639;81;28579;-78
2021/03/19 16:27:58;;;;;;;14.00;7.33;;;;;;;1.70;100.00;99124.16;4354541;81;43907;-74
2021/03/19 16:34:01;;;;;;;16.57;8.28;;;;;;;1.58;100.00;99140.95;4369115;80;43907;-73
2021/03/19 16:40:06;;;;;;;17.75;9.18;;;;;;;1.43;100.00;99132.87;4353392;81;43905;-73
2021/03/19 16:46:10;;;;;;;15.55;8.90;;;;;;;1.55;100.00;99143.92;4356784;80;28665;-75
2021/03/19 16:52:14;;;;;;;19.77;9.00;;;;;;;1.45;100.00;99140.95;4324387;80;43972;-75
2021/03/19 16:58:20;;;;;;;17.15;8.55;;;;;;;1.50;100.00;99146.59;4353163;81;28557;-74
2021/03/19 17:04:24;;;;;;;16.12;8.60;;;;;;;1.43;100.00;99146.13;4369806;80;43945;-74
2021/03/19 17:10:32;;;;;;;18.42;9.35;;;;;;;1.39;100.00;99150.92;4407889;80;28637;-77
2021/03/19 17:16:38;;;;;;;16.87;9.13;;;;;;;1.25;100.00;99163.03;4325355;81;43967;-80
2021/03/19 17:22:42;;;;;;;16.12;9.15;;;;;;;1.19;100.00;99164.53;4330251;80;43937;-77
2021/03/19 17:28:47;;;;;;;21.90;11.05;;;;;;;1.17;100.00;99165.20;4352042;81;44443;-81
2021/03/19 17:34:51;;;;;;;19.00;10.20;;;;;;;0.94;100.00;99168.52;4346566;80;28590;-76
2021/03/19 17:40:58;;;;;;;18.00;10.08;;;;;;;0.96;100.00;99169.17;4376653;80;44508;-79
2021/03/19 17:47:00;;;;;;;20.20;11.30;;;;;;;0.83;100.00;99179.41;4358843;81;48342;-81
2021/03/19 17:53:05;;;;;;;26.07;12.43;;;;;;;0.85;100.00;99180.58;4371625;80;43075;-77
2021/03/19 17:59:07;;;;;;;24.92;12.18;;;;;;;0.71;100.00;99186.86;4349913;81;43793;-80
2021/03/19 18:05:10;;;;;;;24.45;12.55;;;;;;;0.72;100.00;99192.96;4368986;81;43745;-76
2021/03/19 18:11:15;;;;;;;24.80;12.53;;;;;;;0.62;100.00;99190.48;4373650;81;28563;-76
2021/03/19 18:17:17;;;;;;;24.95;12.45;;;;;;;0.58;100.00;99192.61;4302117;81;42918;-74
2021/03/19 18:23:27;;;;;;;27.15;13.53;;;;;;;0.66;100.00;99201.90;4303051;81;43430;-75
2021/03/19 18:29:37;;;;;;;24.20;12.25;;;;;;;0.60;100.00;99206.51;4327603;81;43616;-74
2021/03/19 18:35:51;;;;;;;24.05;12.65;;;;;;;0.43;100.00;99208.80;4600290;76;68125;-76
2021/03/19 18:41:54;;;;;;;25.10;12.55;;;;;;;0.49;100.00;99211.62;4457230;79;43764;-73
2021/03/19 18:47:59;;;;;;;29.83;15.40;;;;;;;0.30;100.00;99217.99;4321275;81;28597;-77
2021/03/19 18:54:02;;;;;;;26.33;13.62;;;;;;;0.23;100.00;99223.61;4378340;80;43263;-75
2021/03/19 19:00:13;;;;;;;24.82;13.40;;;;;;;0.37;100.00;99222.17;4316233;81;43308;-74
2021/03/19 19:06:17;;;;;;;26.35;13.32;;;;;;;0.37;100.00;99222.98;4328695;80;43337;-74
2021/03/19 19:12:19;;;;;;;29.45;14.87;;;;;;;0.46;100.00;99226.98;4347133;81;44082;-77
2021/03/19 19:18:23;;;;;;;29.32;15.00;;;;;;;0.41;100.00;99232.76;4347827;80;43755;-77
2021/03/19 19:24:27;;;;;;;29.92;15.58;;;;;;;0.51;100.00;99236.58;4356445;80;28567;-74
2021/03/19 19:30:35;;;;;;;34.88;16.35;;;;;;;0.57;100.00;99241.72;4342667;80;44151;-78
2021/03/19 19:36:39;;;;;;;35.50;17.03;;;;;;;0.37;100.00;99241.50;4383284;80;34376;-75
2021/03/19 19:42:43;;;;;;;33.18;16.57;;;;;;;0.38;100.00;99236.55;4385136;80;44080;-76
2021/03/19 19:48:46;;;;;;;35.75;18.02;;;;;;;0.33;100.00;99243.30;4317597;81;44499;-74
2021/03/19 19:54:48;;;;;;;40.40;18.48;;;;;;;0.19;100.00;99246.89;4389763;80;44423;-75
2021/03/19 20:00:51;;;;;;;38.80;19.15;;;;;;;0.11;100.00;99252.98;4384119;80;44448;-73
2021/03/19 20:06:54;;;;;;;42.98;19.25;;;;;;;0.08;100.00;99258.56;4391624;81;43708;-73
2021/03/19 20:13:01;;;;;;;41.73;19.52;;;;;;;-0.04;100.00;99258.02;4386316;81;43792;-75
2021/03/19 20:19:11;;;;;;;41.02;19.12;;;;;;;-0.03;100.00;99267.61;4375632;80;42893;-74
2021/03/19 20:25:15;;;;;;;46.48;19.95;;;;;;;-0.10;100.00;99262.60;4378577;81;43730;-75
2021/03/19 20:31:20;;;;;;;39.45;19.40;;;;;;;-0.40;100.00;99265.23;4306205;81;44456;-75
2021/03/19 20:37:23;;;;;;;43.97;18.97;;;;;;;-0.52;100.00;99264.63;4387226;80;28588;-75
2021/03/19 20:43:25;;;;;;;37.98;17.12;;;;;;;-0.61;100.00;99267.71;4303571;81;44431;-75
2021/03/19 20:49:32;;;;;;;34.43;17.48;;;;;;;-0.63;100.00;99269.66;4398874;81;44261;-74
2021/03/19 20:55:35;;;;;;;34.48;16.93;;;;;;;-0.77;100.00;99269.22;4390092;80;44107;-75
2021/03/19 21:01:44;;;;;;;39.73;18.55;;;;;;;-0.74;100.00;99283.43;4398233;80;44470;-76
2021/03/19 21:07:48;;;;;;;37.42;17.40;;;;;;;-0.90;100.00;99289.90;4384084;81;44464;-75
2021/03/19 21:13:55;;;;;;;38.17;18.75;;;;;;;-0.97;100.00;99297.59;4383572;81;28582;-76
2021/03/19 21:19:58;;;;;;;37.75;17.50;;;;;;;-0.91;100.00;99297.48;4367758;81;44426;-76
2021/03/19 21:26:02;;;;;;;44.00;19.87;;;;;;;-1.06;100.00;99299.30;4371187;80;43772;-74
2021/03/19 21:32:07;;;;;;;40.20;18.65;;;;;;;-1.10;100.00;99296.62;4390382;79;44485;-75
2021/03/19 21:38:10;;;;;;;47.93;20.50;;;;;;;-1.15;100.00;99312.06;4388594;81;43776;-74
2021/03/19 21:44:12;;;;;;;39.60;18.37;;;;;;;-1.03;100.00;99313.53;4386719;81;44450;-72
2021/03/19 21:50:21;;;;;;;41.48;18.75;;;;;;;-1.19;100.00;99314.67;4378167;80;42862;-74
2021/03/19 21:56:24;;;;;;;42.00;17.70;;;;;;;-1.44;100.00;99321.80;4378630;80;44430;-74
2021/03/19 22:02:30;;;;;;;37.17;17.52;;;;;;;-1.59;100.00;99329.87;4373550;80;44452;-72
2021/03/19 22:08:46;;;;;;;36.30;17.35;;;;;;;-1.58;100.00;99328.39;4393011;80;28573;-73
2021/03/19 22:14:48;;;;;;;40.55;18.98;;;;;;;-1.35;100.00;99332.46;4371774;80;43681;-73
2021/03/19 22:20:52;;;;;;;35.52;18.62;;;;;;;-1.37;100.00;99338.37;4388728;80;44432;-72
2021/03/19 22:26:57;;;;;;;40.73;19.17;;;;;;;-1.39;100.00;99342.47;4289089;81;28587;-72
2021/03/19 22:33:02;;;;;;;38.30;18.30;;;;;;;-1.22;100.00;99347.45;4352395;80;44443;-71
2021/03/19 22:39:05;;;;;;;37.95;19.48;;;;;;;-1.33;100.00;99352.92;4343611;80;28625;-73
2021/03/19 22:45:10;;;;;;;38.88;18.70;;;;;;;-1.36;100.00;99346.63;4343693;81;44483;-73
2021/03/19 22:51:13;;;;;;;36.70;18.17;;;;;;;-1.15;100.00;99352.48;4374549;81;28619;-73
2021/03/19 22:57:25;;;;;;;43.35;19.90;;;;;;;-1.08;100.00;99353.23;4363687;81;43759;-72
2021/03/19 23:03:35;;;;;;;46.83;21.27;;;;;;;-0.92;100.00;99353.39;4304522;81;43790;-72
2021/03/19 23:09:37;;;;;;;42.85;21.12;;;;;;;-0.80;100.00;99362.41;4389900;80;43808;-72
2021/03/19 23:15:40;;;;;;;41.95;19.90;;;;;;;-0.49;100.00;99360.26;4351566;80;43734;-72
2021/03/19 23:21:45;;;;;;;39.15;19.67;;;;;;;-0.37;100.00;99362.66;4340567;80;44479;-72
2021/03/19 23:27:50;;;;;;;40.83;20.30;;;;;;;-0.43;100.00;99377.31;4348597;81;43778;-73
2021/03/19 23:33:53;;;;;;;50.25;21.05;;;;;;;-0.54;100.00;99382.83;4333267;80;44451;-73
2021/03/19 23:39:55;;;;;;;45.60;21.50;;;;;;;-0.52;100.00;99383.50;4355063;80;43737;-75
2021/03/19 23:46:01;;;;;;;49.50;21.70;;;;;;;-0.39;100.00;99381.30;4378408;81;44509;-74
2021/03/19 23:52:05;;;;;;;45.00;20.57;;;;;;;-0.41;100.00;99379.81;4382691;80;43784;-73
2021/03/19 23:58:14;;;;;;;39.88;19.85;;;;;;;0.06;100.00;99386.63;4381875;80;44533;-73
